createdAt,value
2018-06-21T00:01:01.737Z,67.00
2018-06-21T00:05:59.420Z,67.40
2018-06-21T00:08:28.321Z,67.20
2018-06-21T00:10:57.112Z,67.50
2018-06-21T00:13:26.009Z,67.50
2018-06-21T00:15:56.055Z,67.30
2018-06-21T00:18:24.936Z,67.70
2018-06-21T00:20:53.737Z,67.60
2018-06-21T00:23:22.827Z,68.30
2018-06-21T00:25:51.967Z,68.40
2018-06-21T00:28:20.707Z,68.50
2018-06-21T00:30:49.442Z,68.80
2018-06-21T00:33:18.181Z,68.50
2018-06-21T00:35:46.917Z,68.40
2018-06-21T00:38:16.353Z,68.70
2018-06-21T00:40:45.149Z,68.90
2018-06-21T00:43:14.301Z,68.90
2018-06-21T00:45:43.061Z,69.20
2018-06-21T00:48:11.777Z,69.60
2018-06-21T00:50:41.211Z,69.70
2018-06-21T00:53:09.968Z,69.90
2018-06-21T00:55:50.288Z,70.00
2018-06-21T00:58:19.032Z,69.80
2018-06-21T01:00:47.787Z,70.20
2018-06-21T01:08:20.461Z,71.10
2018-06-21T01:10:49.650Z,72.20
2018-06-21T01:13:18.731Z,71.50
2018-06-21T01:15:47.516Z,71.80
2018-06-21T01:18:16.366Z,71.90
2018-06-21T01:23:13.677Z,72.40
2018-06-21T01:25:42.695Z,72.50
2018-06-21T01:28:11.698Z,72.70
2018-06-21T01:30:40.515Z,73.90
2018-06-21T01:33:09.880Z,73.00
2018-06-21T01:35:38.767Z,73.10
2018-06-21T01:38:08.027Z,73.40
2018-06-21T01:40:36.829Z,73.60
2018-06-21T01:43:05.718Z,73.90
2018-06-21T01:45:34.838Z,74.10
2018-06-21T01:48:03.920Z,74.00
2018-06-21T01:50:32.678Z,74.10
2018-06-21T01:53:01.790Z,74.50
2018-06-21T01:55:30.528Z,74.70
2018-06-21T01:57:59.358Z,74.70
2018-06-21T02:00:28.118Z,74.70
2018-06-21T02:02:56.898Z,74.80
2018-06-21T02:05:25.685Z,74.50
2018-06-21T02:07:54.746Z,74.60
2018-06-21T02:10:23.580Z,74.90
2018-06-21T02:12:52.458Z,75.10
2018-06-21T02:15:21.278Z,75.20
2018-06-21T02:17:50.212Z,75.10
2018-06-21T02:20:19.555Z,75.00
2018-06-21T02:22:48.425Z,74.80
2018-06-21T02:25:17.311Z,75.00
2018-06-21T02:27:46.174Z,74.90
2018-06-21T02:30:15.377Z,74.50
2018-06-21T02:32:44.599Z,74.30
2018-06-21T02:35:13.320Z,74.40
2018-06-21T02:37:42.413Z,74.10
2018-06-21T02:40:11.135Z,73.90
2018-06-21T02:42:39.856Z,74.40
2018-06-21T02:45:08.604Z,73.60
2018-06-21T02:50:06.302Z,74.10
2018-06-21T02:52:35.564Z,74.00
2018-06-21T02:55:04.328Z,74.10
2018-06-21T02:57:33.438Z,74.30
2018-06-21T03:00:02.569Z,74.10
2018-06-21T03:02:31.479Z,74.00
2018-06-21T03:05:00.305Z,73.90
2018-06-21T03:07:29.173Z,73.50
2018-06-21T03:09:58.049Z,73.30
2018-06-21T03:12:26.940Z,73.50
2018-06-21T03:14:55.868Z,73.00
2018-06-21T03:17:25.543Z,71.80
2018-06-21T03:19:54.289Z,70.90
2018-06-21T03:22:23.174Z,70.90
2018-06-21T03:24:51.966Z,70.70
2018-06-21T03:27:21.058Z,70.40
2018-06-21T03:29:49.829Z,70.00
2018-06-21T03:32:18.609Z,69.90
2018-06-21T03:34:47.706Z,68.40
2018-06-21T03:37:16.465Z,65.50
2018-06-21T03:39:45.215Z,62.30
2018-06-21T03:42:13.967Z,59.50
2018-06-21T03:44:43.081Z,57.90
2018-06-21T03:47:11.831Z,56.50
2018-06-21T03:49:40.893Z,56.60
2018-06-21T03:52:09.835Z,58.60
2018-06-21T03:54:38.843Z,57.90
2018-06-21T03:57:07.789Z,56.60
2018-06-21T03:59:36.782Z,56.80
2018-06-21T04:02:06.419Z,55.30
2018-06-21T04:04:35.957Z,54.50
2018-06-21T04:07:05.370Z,52.80
2018-06-21T04:09:35.196Z,53.00
2018-06-21T04:12:05.317Z,52.40
2018-06-21T04:14:35.433Z,51.90
2018-06-21T04:17:05.145Z,50.90
2018-06-21T04:19:34.906Z,52.50
2018-06-21T04:22:04.274Z,53.40
2018-06-21T04:24:33.694Z,51.00
2018-06-21T04:27:03.326Z,47.70
2018-06-21T04:29:33.044Z,45.20
2018-06-21T04:32:02.335Z,45.70
2018-06-21T04:34:31.650Z,43.60
2018-06-21T04:37:00.945Z,42.30
2018-06-21T04:39:30.272Z,40.50
2018-06-21T04:41:59.892Z,40.00
2018-06-21T04:44:29.550Z,39.70
2018-06-21T04:46:58.852Z,38.60
2018-06-21T04:49:28.179Z,38.10
2018-06-21T04:51:57.510Z,37.40
2018-06-21T04:54:26.858Z,37.00
2018-06-21T04:56:56.531Z,35.60
2018-06-21T04:59:26.249Z,35.80
2018-06-21T05:01:56.251Z,36.50
2018-06-21T05:04:25.591Z,36.90
2018-06-21T05:06:54.955Z,35.10
2018-06-21T05:09:24.621Z,33.50
2018-06-21T05:11:54.299Z,33.60
2018-06-21T05:14:23.373Z,33.00
2018-06-21T05:16:53.179Z,32.20
2018-06-21T05:19:22.752Z,34.40
2018-06-21T05:21:52.206Z,33.10
2018-06-21T05:24:21.738Z,33.30
2018-06-21T05:26:51.305Z,32.00
2018-06-21T05:29:20.870Z,32.40
2018-06-21T05:31:51.201Z,32.00
2018-06-21T05:34:20.908Z,31.10
2018-06-21T05:36:50.510Z,31.30
2018-06-21T05:39:19.835Z,30.80
2018-06-21T05:41:50.231Z,32.20
2018-06-21T05:44:19.869Z,35.30
2018-06-21T05:46:50.134Z,37.50
2018-06-21T05:49:20.079Z,36.90
2018-06-21T05:51:49.544Z,34.40
2018-06-21T05:54:18.949Z,34.10
2018-06-21T05:56:48.454Z,33.70
2018-06-21T05:59:17.977Z,32.20
2018-06-21T06:01:47.336Z,33.40
2018-06-21T06:04:16.965Z,32.70
2018-06-21T06:06:46.280Z,32.50
2018-06-21T06:09:15.953Z,32.50
2018-06-21T06:11:45.280Z,33.60
2018-06-21T06:14:14.659Z,38.20
2018-06-21T06:16:44.388Z,41.40
2018-06-21T06:19:13.684Z,42.60
2018-06-21T06:21:43.092Z,42.30
2018-06-21T06:24:12.483Z,38.00
2018-06-21T06:26:42.330Z,41.70
2018-06-21T06:29:11.694Z,45.30
2018-06-21T06:31:41.160Z,47.30
2018-06-21T06:34:10.478Z,47.60
2018-06-21T06:36:39.863Z,48.90
2018-06-21T06:39:18.474Z,50.00
2018-06-21T06:41:49.637Z,53.40
2018-06-21T06:44:19.444Z,52.00
2018-06-21T06:46:48.770Z,52.20
2018-06-21T06:49:18.152Z,53.10
2018-06-21T06:51:47.448Z,54.00
2018-06-21T06:54:16.276Z,54.10
2018-06-21T06:56:45.378Z,54.30
2018-06-21T07:01:43.141Z,55.30
2018-06-21T07:04:12.856Z,54.00
2018-06-21T07:06:42.223Z,52.60
2018-06-21T07:09:11.478Z,53.00
2018-06-21T07:11:40.856Z,51.90
2018-06-21T07:14:10.395Z,52.00
2018-06-21T07:16:40.103Z,53.40
2018-06-21T07:19:09.643Z,45.70
2018-06-21T07:21:40.843Z,42.40
2018-06-21T07:24:10.378Z,45.90
2018-06-21T07:26:40.011Z,46.20
2018-06-21T07:29:10.389Z,45.70
2018-06-21T07:31:39.782Z,47.90
2018-06-21T07:34:09.695Z,50.10
2018-06-21T07:36:39.364Z,50.30
2018-06-21T07:39:10.209Z,50.60
2018-06-21T07:41:39.828Z,50.00
2018-06-21T07:44:09.294Z,50.00
2018-06-21T07:46:38.846Z,47.80
2018-06-21T07:49:08.862Z,45.60
2018-06-21T07:51:38.713Z,46.60
2018-06-21T07:54:08.302Z,45.10
2018-06-21T07:56:37.664Z,44.30
2018-06-21T07:59:07.420Z,41.70
2018-06-21T08:01:37.076Z,39.40
2018-06-21T08:04:06.440Z,37.90
2018-06-21T08:09:10.476Z,41.10
2018-06-21T08:11:40.118Z,43.90
2018-06-21T08:14:10.284Z,47.10
2018-06-21T08:16:44.092Z,48.10
2018-06-21T08:19:13.624Z,48.90
2018-06-21T08:21:43.154Z,49.90
2018-06-21T08:24:12.984Z,48.30
2018-06-21T08:26:43.127Z,48.10
2018-06-21T08:29:12.731Z,47.50
2018-06-21T08:31:43.312Z,47.20
2018-06-21T08:34:13.029Z,48.50
2018-06-21T08:36:42.729Z,46.70
2018-06-21T08:39:12.125Z,48.30
2018-06-21T08:41:41.815Z,48.70
2018-06-21T08:44:11.464Z,47.30
2018-06-21T08:46:41.127Z,47.40
2018-06-21T08:49:10.811Z,49.20
2018-06-21T08:51:40.201Z,49.10
2018-06-21T08:54:09.540Z,48.90
2018-06-21T08:56:39.221Z,49.00
2018-06-21T08:59:08.576Z,49.30
2018-06-21T09:01:37.888Z,49.60
2018-06-21T09:04:07.332Z,48.40
2018-06-21T09:06:36.658Z,47.40
2018-06-21T09:09:08.004Z,49.00
2018-06-21T09:11:37.737Z,48.40
2018-06-21T09:14:07.432Z,47.10
2018-06-21T09:16:36.832Z,46.50
2018-06-21T09:19:06.532Z,46.90
2018-06-21T09:21:36.165Z,45.90
2018-06-21T09:24:05.862Z,45.70
2018-06-21T09:26:35.419Z,47.70
2018-06-21T09:29:05.377Z,48.00
2018-06-21T09:34:03.760Z,48.30
2018-06-21T09:36:37.178Z,46.80
2018-06-21T09:39:14.326Z,47.60
2018-06-21T09:41:50.084Z,47.00
2018-06-21T09:44:25.573Z,47.50
2018-06-21T09:47:00.551Z,48.70
2018-06-21T09:49:31.406Z,48.70
2018-06-21T09:52:03.541Z,48.10
2018-06-21T09:54:33.352Z,48.10
2018-06-21T09:57:03.342Z,47.20
2018-06-21T09:59:32.934Z,47.60
2018-06-21T10:02:02.681Z,48.70
2018-06-21T10:04:33.046Z,47.50
2018-06-21T10:07:03.005Z,46.20
2018-06-21T10:09:32.707Z,46.80
2018-06-21T10:12:02.147Z,45.90
2018-06-21T10:14:31.199Z,45.10
2018-06-21T10:17:00.629Z,44.60
2018-06-21T10:19:30.140Z,45.00
2018-06-21T10:21:59.597Z,44.70
2018-06-21T10:24:28.504Z,44.80
2018-06-21T10:26:57.639Z,43.90
2018-06-21T10:29:26.774Z,43.50
2018-06-21T10:31:56.582Z,44.80
2018-06-21T10:34:25.407Z,44.70
2018-06-21T10:36:55.094Z,44.10
2018-06-21T10:39:24.432Z,44.60
2018-06-21T10:41:53.180Z,45.20
2018-06-21T10:44:21.973Z,47.70
2018-06-21T10:46:51.196Z,51.50
2018-06-21T10:49:19.939Z,56.40
2018-06-21T10:51:48.719Z,59.40
2018-06-21T10:54:17.856Z,60.80
2018-06-21T10:56:46.715Z,61.10
2018-06-21T10:59:15.740Z,61.10
2018-06-21T11:01:44.741Z,61.60
2018-06-21T11:04:14.145Z,62.80
2018-06-21T11:06:43.199Z,64.00
2018-06-21T11:09:12.529Z,64.50
2018-06-21T11:14:11.138Z,67.50
2018-06-21T11:16:39.996Z,67.90
2018-06-21T11:19:08.879Z,68.80
2018-06-21T11:21:37.654Z,68.40
2018-06-21T11:24:07.037Z,66.10
2018-06-21T11:26:35.795Z,67.20
2018-06-21T11:29:04.605Z,68.30
2018-06-21T11:31:33.354Z,67.00
2018-06-21T11:34:02.121Z,65.00
2018-06-21T11:36:31.251Z,64.80
2018-06-21T11:39:00.068Z,64.90
2018-06-21T11:41:29.190Z,63.80
2018-06-21T11:43:58.300Z,64.40
2018-06-21T11:46:27.466Z,62.90
2018-06-21T11:48:56.362Z,62.60
2018-06-21T11:51:25.262Z,62.20
2018-06-21T11:53:54.262Z,60.90
2018-06-21T11:56:23.501Z,60.90
2018-06-21T11:58:52.564Z,60.30
2018-06-21T12:01:21.792Z,60.00
2018-06-21T12:03:50.998Z,59.40
2018-06-21T12:06:19.896Z,58.50
2018-06-21T12:08:49.093Z,60.70
2018-06-21T12:11:18.173Z,61.70
2018-06-21T12:13:46.942Z,61.70
2018-06-21T12:16:15.714Z,66.20
2018-06-21T12:18:44.870Z,66.60
2018-06-21T12:21:13.826Z,64.10
2018-06-21T12:23:43.019Z,63.70
2018-06-21T12:26:11.911Z,62.80
2018-06-21T12:28:40.866Z,64.80
2018-06-21T12:31:09.659Z,65.80
2018-06-21T12:33:38.805Z,66.10
2018-06-21T12:36:07.563Z,65.60
2018-06-21T12:38:36.804Z,66.80
2018-06-21T12:41:05.964Z,67.80
2018-06-21T12:43:35.033Z,67.50
2018-06-21T12:46:04.095Z,68.60
2018-06-21T12:48:33.419Z,70.10
2018-06-21T12:51:02.451Z,69.20
2018-06-21T12:53:31.655Z,68.60
2018-06-21T12:56:00.601Z,69.50
2018-06-21T12:58:29.697Z,70.00
2018-06-21T13:00:59.377Z,69.90
2018-06-21T13:03:35.125Z,68.70
2018-06-21T13:06:04.507Z,68.90
2018-06-21T13:08:45.215Z,71.10
2018-06-21T13:11:27.971Z,71.00
2018-06-21T13:14:08.335Z,72.90
2018-06-21T13:16:37.373Z,69.60
2018-06-21T13:19:06.278Z,73.50
2018-06-21T13:21:35.308Z,73.40
2018-06-21T13:24:04.466Z,72.30
2018-06-21T13:26:33.450Z,70.80
2018-06-21T13:29:02.765Z,72.20
2018-06-21T13:31:32.042Z,69.30
2018-06-21T13:34:01.236Z,68.70
2018-06-21T13:36:30.441Z,68.00
2018-06-21T13:38:59.233Z,69.60
2018-06-21T13:41:28.010Z,70.60
2018-06-21T13:43:57.175Z,69.60
2018-06-21T13:46:26.345Z,66.50
2018-06-21T13:48:56.404Z,66.20
2018-06-21T13:51:25.510Z,63.70
2018-06-21T13:53:54.290Z,66.60
2018-06-21T13:56:23.158Z,68.80
2018-06-21T13:58:51.996Z,70.40
2018-06-21T14:01:20.822Z,69.90
2018-06-21T14:03:49.651Z,70.10
2018-06-21T14:06:18.553Z,68.60
2018-06-21T14:08:47.582Z,70.60
2018-06-21T14:11:16.507Z,69.50
2018-06-21T14:13:45.340Z,66.50
2018-06-21T14:16:14.750Z,65.60
2018-06-21T14:18:43.800Z,64.30
2018-06-21T14:21:13.241Z,64.60
2018-06-21T14:23:42.337Z,63.10
2018-06-21T14:26:11.539Z,61.00
2018-06-21T14:28:41.089Z,59.90
2018-06-21T14:31:09.927Z,61.00
2018-06-21T14:33:38.809Z,60.30
2018-06-21T14:36:07.930Z,59.60
2018-06-21T14:38:37.042Z,59.10
2018-06-21T14:41:05.867Z,57.50
2018-06-21T14:43:34.645Z,55.70
2018-06-21T14:46:03.507Z,57.10
2018-06-21T14:48:32.601Z,55.20
2018-06-21T14:51:01.703Z,56.10
2018-06-21T14:53:30.541Z,55.20
2018-06-21T14:56:00.016Z,57.00
2018-06-21T14:58:29.184Z,53.60
2018-06-21T15:00:58.281Z,55.60
2018-06-21T15:03:27.220Z,56.00
2018-06-21T15:05:56.452Z,53.80
2018-06-21T15:08:25.837Z,54.50
2018-06-21T15:10:54.762Z,52.00
2018-06-21T15:13:23.934Z,53.50
2018-06-21T15:15:53.246Z,52.00
2018-06-21T15:18:22.368Z,52.40
2018-06-21T15:20:51.435Z,53.10
2018-06-21T15:23:20.720Z,54.00
2018-06-21T15:25:50.241Z,52.70
2018-06-21T15:28:19.145Z,52.50
2018-06-21T15:30:48.342Z,53.30
2018-06-21T15:33:17.178Z,52.30
2018-06-21T15:35:46.621Z,52.70
2018-06-21T15:38:18.489Z,54.20
2018-06-21T15:40:47.362Z,53.00
2018-06-21T15:43:16.443Z,52.20
2018-06-21T15:45:45.245Z,52.70
2018-06-21T15:48:14.601Z,50.50
2018-06-21T15:50:43.420Z,50.60
2018-06-21T15:53:12.544Z,51.10
2018-06-21T15:55:41.295Z,51.60
2018-06-21T15:58:10.429Z,51.70
2018-06-21T16:00:39.772Z,50.60
2018-06-21T16:03:08.924Z,51.30
2018-06-21T16:05:38.083Z,50.40
2018-06-21T16:08:07.228Z,49.60
2018-06-21T16:10:36.178Z,50.10
2018-06-21T16:13:05.045Z,48.00
2018-06-21T16:15:34.318Z,47.40
2018-06-21T16:18:04.323Z,48.90
2018-06-21T16:20:33.754Z,47.50
2018-06-21T16:23:02.773Z,46.80
2018-06-21T16:25:31.788Z,48.30
2018-06-21T16:28:00.920Z,47.40
2018-06-21T16:30:29.875Z,49.20
2018-06-21T16:32:58.664Z,47.80
2018-06-21T16:35:28.153Z,47.10
2018-06-21T16:37:57.656Z,46.60
2018-06-21T16:40:26.770Z,47.30
2018-06-21T16:42:55.803Z,47.30
2018-06-21T16:45:25.016Z,46.60
2018-06-21T16:47:54.137Z,46.90
2018-06-21T16:50:22.927Z,46.30
2018-06-21T16:52:51.697Z,46.80
2018-06-21T16:55:20.565Z,47.90
2018-06-21T16:57:49.321Z,46.80
2018-06-21T17:00:18.165Z,47.10
2018-06-21T17:02:47.030Z,47.50
2018-06-21T17:05:16.294Z,48.60
2018-06-21T17:07:45.220Z,48.40
2018-06-21T17:10:14.092Z,49.10
2018-06-21T17:12:42.994Z,49.00
2018-06-21T17:15:12.357Z,48.30
2018-06-21T17:17:41.525Z,48.00
2018-06-21T17:20:10.506Z,47.60
2018-06-21T17:22:40.120Z,48.00
2018-06-21T17:25:09.314Z,48.80
2018-06-21T17:27:38.509Z,48.60
2018-06-21T17:30:07.527Z,47.40
2018-06-21T17:32:36.702Z,47.10
2018-06-21T17:35:05.768Z,46.00
2018-06-21T17:37:34.571Z,46.00
2018-06-21T17:40:03.389Z,47.00
2018-06-21T17:42:32.184Z,48.30
2018-06-21T17:45:00.971Z,48.10
2018-06-21T17:47:30.452Z,47.00
2018-06-21T17:49:59.326Z,47.50
2018-06-21T17:52:28.626Z,48.40
2018-06-21T17:54:57.460Z,47.60
2018-06-21T17:57:26.605Z,48.60
2018-06-21T17:59:55.815Z,49.40
2018-06-21T18:02:24.749Z,48.40
2018-06-21T18:04:53.814Z,48.20
2018-06-21T18:07:23.181Z,48.30
2018-06-21T18:09:52.171Z,48.00
2018-06-21T18:12:21.051Z,48.80
2018-06-21T18:14:50.398Z,49.50
2018-06-21T18:17:19.905Z,48.60
2018-06-21T18:19:49.093Z,48.70
2018-06-21T18:22:20.434Z,48.50
2018-06-21T18:24:51.019Z,49.00
2018-06-21T18:27:20.731Z,49.00
2018-06-21T18:29:50.018Z,48.50
2018-06-21T18:32:18.931Z,48.50
2018-06-21T18:34:48.306Z,49.80
2018-06-21T18:50:17.212Z,50.20
2018-06-21T18:52:46.085Z,50.80
2018-06-21T18:55:15.533Z,51.40
2018-06-21T18:57:44.421Z,50.40
2018-06-21T19:05:10.900Z,51.70
2018-06-21T19:07:41.325Z,51.70
2018-06-21T19:10:15.534Z,52.40
2018-06-21T19:12:44.406Z,51.40
2018-06-21T19:15:13.559Z,52.00
2018-06-21T19:17:42.719Z,51.40
2018-06-21T19:20:12.327Z,52.40
2018-06-21T19:22:41.296Z,51.60
2018-06-21T19:25:10.230Z,51.20
2018-06-21T19:27:39.311Z,52.80
2018-06-21T19:30:08.449Z,52.70
2018-06-21T19:32:37.471Z,52.60
2018-06-21T19:35:06.421Z,52.20
2018-06-21T19:37:35.672Z,51.90
2018-06-21T19:40:05.015Z,52.40
2018-06-21T19:42:34.388Z,53.20
2018-06-21T19:45:03.642Z,52.30
2018-06-21T19:47:32.692Z,52.80
2018-06-21T19:50:01.547Z,52.70
2018-06-21T19:52:30.482Z,52.50
2018-06-21T19:54:59.411Z,51.90
2018-06-21T19:57:28.349Z,52.60
2018-06-21T19:59:57.563Z,53.30
2018-06-21T20:02:31.372Z,53.20
2018-06-21T20:05:00.568Z,53.00
2018-06-21T20:07:29.414Z,53.10
2018-06-21T20:09:58.313Z,54.10
2018-06-21T20:12:27.163Z,54.20
2018-06-21T20:14:56.127Z,54.20
2018-06-21T20:17:25.421Z,53.60
2018-06-21T20:19:59.666Z,55.30
2018-06-21T20:22:28.593Z,55.90
2018-06-21T20:24:57.515Z,53.50
2018-06-21T20:27:26.413Z,53.20
2018-06-21T20:29:55.289Z,54.90
2018-06-21T20:32:24.113Z,53.90
2018-06-21T20:34:53.386Z,53.80
2018-06-21T20:37:22.367Z,54.40
2018-06-21T20:39:51.569Z,53.90
2018-06-21T20:42:20.541Z,54.90
2018-06-21T20:44:49.451Z,55.70
2018-06-21T20:47:18.380Z,54.30
2018-06-21T20:49:47.334Z,54.40
2018-06-21T20:52:21.858Z,54.10
2018-06-21T20:54:50.661Z,53.20
2018-06-21T20:57:19.656Z,53.70
2018-06-21T20:59:48.550Z,54.60
2018-06-21T21:02:17.495Z,53.60
2018-06-21T21:05:13.880Z,55.90
2018-06-21T21:07:43.490Z,54.90
2018-06-21T21:10:14.149Z,54.80
2018-06-21T21:12:43.379Z,55.30
2018-06-21T21:17:41.909Z,55.70
2018-06-21T21:20:10.911Z,55.40
2018-06-21T21:22:40.568Z,55.00
2018-06-21T21:25:09.351Z,56.00
2018-06-21T21:27:38.277Z,54.30
2018-06-21T21:30:08.127Z,56.90
2018-06-21T21:32:36.897Z,56.90
2018-06-21T21:35:06.065Z,56.50
2018-06-21T21:37:35.216Z,56.50
2018-06-21T21:40:06.256Z,56.60
2018-06-21T21:42:36.354Z,56.10
2018-06-21T21:45:05.414Z,57.90
2018-06-21T21:47:34.258Z,57.70
2018-06-21T21:50:03.050Z,57.20
2018-06-21T21:52:31.844Z,56.80
2018-06-21T21:55:00.874Z,56.40
2018-06-21T21:57:32.652Z,57.80
2018-06-21T22:00:02.137Z,57.80
2018-06-21T22:02:30.985Z,57.90
2018-06-21T22:04:59.797Z,58.60
2018-06-21T22:07:28.958Z,58.20
2018-06-21T22:09:58.161Z,58.60
2018-06-21T22:12:27.056Z,57.90
2018-06-21T22:14:55.903Z,58.00
2018-06-21T22:17:24.777Z,58.60
2018-06-21T22:19:53.665Z,59.90
2018-06-21T22:22:22.427Z,59.60
2018-06-21T22:24:51.228Z,60.40
2018-06-21T22:29:48.498Z,61.10
2018-06-21T22:32:17.706Z,61.30
2018-06-21T22:34:46.832Z,61.80
2018-06-21T22:37:15.636Z,62.60
2018-06-21T22:39:44.441Z,61.10
2018-06-21T22:42:13.554Z,62.80
2018-06-21T22:44:42.343Z,62.40
2018-06-21T22:47:11.294Z,61.20
2018-06-21T22:49:40.134Z,63.40
2018-06-21T22:52:08.926Z,62.60
2018-06-21T22:54:37.788Z,61.80
2018-06-21T22:57:06.624Z,61.30
2018-06-21T22:59:35.547Z,59.60
2018-06-21T23:02:04.767Z,60.80
2018-06-21T23:07:02.059Z,60.50
2018-06-21T23:09:31.141Z,60.50
2018-06-21T23:11:59.999Z,61.40
2018-06-21T23:14:28.778Z,60.30
2018-06-21T23:16:58.382Z,60.90
2018-06-21T23:19:30.620Z,60.80
2018-06-21T23:21:59.990Z,59.80
2018-06-21T23:24:29.086Z,60.60
2018-06-21T23:26:58.522Z,59.60
2018-06-21T23:29:27.584Z,61.00
2018-06-21T23:31:56.336Z,61.10
2018-06-21T23:34:25.099Z,61.40
2018-06-21T23:36:53.900Z,61.20
2018-06-21T23:39:23.058Z,60.20
2018-06-21T23:41:51.800Z,62.20
2018-06-21T23:44:20.924Z,61.80
2018-06-21T23:46:49.734Z,64.30
2018-06-21T23:49:18.913Z,62.90
2018-06-21T23:51:48.196Z,63.30
2018-06-21T23:54:17.078Z,62.20
2018-06-21T23:56:46.345Z,61.70
2018-06-21T23:59:15.573Z,63.80
